Rumula, Australia
Current Conditions -  °F | °C
As of 2:00 AM on Friday 28 Nov 2014 (Local Time) from YBCS Reporting Station
Rain Showers Rain Showers  
Wind Chill: 73°   Ceiling: 4200
Heat Index: 73°   Visibility: 6mi
Dew Point: 68°   Wind: 9mph
Humidity: 83%   Direction: 160°SSE
Pressure: 29.83"   Gusts: NA
Location:  16.55°S, 145.35°E
Report Text: YBCS 271600Z AUTO 16008KT 9999 -SHRA SCT028 BKN042 OVC066 23/20 Q1010
Loading
Personal Weather Stations






























Interactive Weather Map New forecast layout! Learn more

10-Day Weather Forecast

Advertisements
Track Severe Weather on mobile